sensor_id;sensor_type;location;lat;lon;timestamp;pressure;altitude;pressure_sealevel;temperature;humidity
78584;BME280;67880;46.082;18.234;2023-07-20T00:00:10;99059.66;;;21.07;78.65
78584;BME280;67880;46.082;18.234;2023-07-20T00:00:48;99063.22;;;20.96;79.28
78584;BME280;67880;46.082;18.234;2023-07-20T00:01:59;99066.81;;;20.85;79.58
78584;BME280;67880;46.082;18.234;2023-07-20T00:02:33;99068.72;;;20.84;79.89
78584;BME280;67880;46.082;18.234;2023-07-20T00:03:14;99062.41;;;20.83;80.41
78584;BME280;67880;46.082;18.234;2023-07-20T00:03:52;99062.66;;;20.82;79.98
78584;BME280;67880;46.082;18.234;2023-07-20T00:04:31;99059.94;;;20.82;80.60
78584;BME280;67880;46.082;18.234;2023-07-20T00:05:05;99072.88;;;20.87;79.96
78584;BME280;67880;46.082;18.234;2023-07-20T00:05:39;99067.88;;;20.83;80.13
78584;BME280;67880;46.082;18.234;2023-07-20T00:06:12;99071.56;;;20.89;80.05
78584;BME280;67880;46.082;18.234;2023-07-20T00:06:46;99064.56;;;20.93;79.26
78584;BME280;67880;46.082;18.234;2023-07-20T00:07:21;99063.69;;;20.93;78.90
78584;BME280;67880;46.082;18.234;2023-07-20T00:07:56;99062.53;;;20.89;79.44
78584;BME280;67880;46.082;18.234;2023-07-20T00:08:31;99073.09;;;20.85;79.46
78584;BME280;67880;46.082;18.234;2023-07-20T00:09:07;99074.16;;;20.84;79.39
78584;BME280;67880;46.082;18.234;2023-07-20T00:09:42;99071.19;;;20.86;79.16
78584;BME280;67880;46.082;18.234;2023-07-20T00:10:17;99069.06;;;20.88;78.60
78584;BME280;67880;46.082;18.234;2023-07-20T00:10:51;99077.25;;;20.88;77.12
78584;BME280;67880;46.082;18.234;2023-07-20T00:11:27;99074.84;;;20.91;76.52
78584;BME280;67880;46.082;18.234;2023-07-20T00:12:02;99066.41;;;20.93;77.06
78584;BME280;67880;46.082;18.234;2023-07-20T00:12:36;99061.81;;;20.93;77.05
78584;BME280;67880;46.082;18.234;2023-07-20T00:13:44;99060.75;;;20.94;77.00
78584;BME280;67880;46.082;18.234;2023-07-20T00:14:52;99063.50;;;20.82;77.69
78584;BME280;67880;46.082;18.234;2023-07-20T00:15:28;99056.38;;;20.81;77.62
78584;BME280;67880;46.082;18.234;2023-07-20T00:16:01;99060.53;;;20.84;77.39
78584;BME280;67880;46.082;18.234;2023-07-20T00:16:37;99057.78;;;20.84;77.16
78584;BME280;67880;46.082;18.234;2023-07-20T00:17:10;99059.22;;;20.87;77.15
78584;BME280;67880;46.082;18.234;2023-07-20T00:17:43;99051.25;;;20.85;76.95
78584;BME280;67880;46.082;18.234;2023-07-20T00:18:17;99046.63;;;20.86;76.89
78584;BME280;67880;46.082;18.234;2023-07-20T00:18:54;99041.53;;;20.89;76.83
78584;BME280;67880;46.082;18.234;2023-07-20T00:19:29;99048.31;;;20.87;76.82
78584;BME280;67880;46.082;18.234;2023-07-20T00:20:06;99048.06;;;20.88;76.54
78584;BME280;67880;46.082;18.234;2023-07-20T00:20:40;99052.59;;;20.82;76.56
78584;BME280;67880;46.082;18.234;2023-07-20T00:21:13;99050.56;;;20.78;76.89
78584;BME280;67880;46.082;18.234;2023-07-20T00:22:22;99052.97;;;20.74;76.82
78584;BME280;67880;46.082;18.234;2023-07-20T00:23:31;99048.09;;;20.65;75.73
78584;BME280;67880;46.082;18.234;2023-07-20T00:24:10;99047.84;;;20.66;76.38
78584;BME280;67880;46.082;18.234;2023-07-20T00:24:44;99047.16;;;20.71;75.65
78584;BME280;67880;46.082;18.234;2023-07-20T00:25:19;99046.19;;;20.65;75.13
78584;BME280;67880;46.082;18.234;2023-07-20T00:25:53;99039.81;;;20.60;75.97
78584;BME280;67880;46.082;18.234;2023-07-20T00:26:27;99042.44;;;20.54;75.72
78584;BME280;67880;46.082;18.234;2023-07-20T00:27:01;99038.84;;;20.54;76.53
78584;BME280;67880;46.082;18.234;2023-07-20T00:27:37;99038.28;;;20.64;76.44
78584;BME280;67880;46.082;18.234;2023-07-20T00:28:11;99039.47;;;20.56;75.34
78584;BME280;67880;46.082;18.234;2023-07-20T00:28:44;99028.91;;;20.60;75.71
78584;BME280;67880;46.082;18.234;2023-07-20T00:29:19;99027.81;;;20.61;75.87
78584;BME280;67880;46.082;18.234;2023-07-20T00:29:53;99029.25;;;20.63;76.10
78584;BME280;67880;46.082;18.234;2023-07-20T00:30:28;99027.59;;;20.62;76.67
78584;BME280;67880;46.082;18.234;2023-07-20T00:31:04;99026.78;;;20.62;76.23
78584;BME280;67880;46.082;18.234;2023-07-20T00:31:37;99028.19;;;20.64;76.03
78584;BME280;67880;46.082;18.234;2023-07-20T00:32:12;99032.81;;;20.64;76.61
78584;BME280;67880;46.082;18.234;2023-07-20T00:33:20;99031.03;;;20.69;76.78
78584;BME280;67880;46.082;18.234;2023-07-20T00:33:55;99027.69;;;20.67;76.43
78584;BME280;67880;46.082;18.234;2023-07-20T00:34:30;99028.19;;;20.64;77.58
78584;BME280;67880;46.082;18.234;2023-07-20T00:35:04;99028.91;;;20.60;78.07
78584;BME280;67880;46.082;18.234;2023-07-20T00:35:39;99032.00;;;20.63;77.78
78584;BME280;67880;46.082;18.234;2023-07-20T00:36:12;99023.91;;;20.68;77.41
78584;BME280;67880;46.082;18.234;2023-07-20T00:36:46;99024.25;;;20.72;77.51
78584;BME280;67880;46.082;18.234;2023-07-20T00:37:22;99025.69;;;20.74;77.68
78584;BME280;67880;46.082;18.234;2023-07-20T00:37:56;99018.66;;;20.78;78.03
78584;BME280;67880;46.082;18.234;2023-07-20T00:38:32;99016.03;;;20.83;77.72
78584;BME280;67880;46.082;18.234;2023-07-20T00:39:06;99014.50;;;20.88;77.96
78584;BME280;67880;46.082;18.234;2023-07-20T00:39:40;99016.72;;;20.91;77.45
78584;BME280;67880;46.082;18.234;2023-07-20T00:40:14;99015.06;;;20.90;76.63
78584;BME280;67880;46.082;18.234;2023-07-20T00:40:49;99017.13;;;20.82;75.58
78584;BME280;67880;46.082;18.234;2023-07-20T00:41:22;99017.38;;;20.81;75.27
78584;BME280;67880;46.082;18.234;2023-07-20T00:41:56;99014.13;;;20.84;75.59
78584;BME280;67880;46.082;18.234;2023-07-20T00:42:31;99023.88;;;20.80;75.88
78584;BME280;67880;46.082;18.234;2023-07-20T00:43:07;99016.19;;;20.77;76.14
78584;BME280;67880;46.082;18.234;2023-07-20T00:43:40;99018.66;;;20.78;75.62
78584;BME280;67880;46.082;18.234;2023-07-20T00:44:18;99024.72;;;20.80;75.50
78584;BME280;67880;46.082;18.234;2023-07-20T00:44:51;99025.75;;;20.79;75.65
78584;BME280;67880;46.082;18.234;2023-07-20T00:45:27;99025.75;;;20.79;74.89
78584;BME280;67880;46.082;18.234;2023-07-20T00:46:03;99024.47;;;20.82;75.21
78584;BME280;67880;46.082;18.234;2023-07-20T00:46:39;99021.38;;;20.78;75.25
78584;BME280;67880;46.082;18.234;2023-07-20T00:47:16;99027.91;;;20.77;75.42
78584;BME280;67880;46.082;18.234;2023-07-20T00:47:50;99028.41;;;20.74;75.75
78584;BME280;67880;46.082;18.234;2023-07-20T00:48:25;99024.97;;;20.67;74.73
78584;BME280;67880;46.082;18.234;2023-07-20T00:49:01;99025.31;;;20.71;74.93
78584;BME280;67880;46.082;18.234;2023-07-20T00:49:36;99029.38;;;20.68;74.84
78584;BME280;67880;46.082;18.234;2023-07-20T00:50:09;99023.66;;;20.70;75.26
78584;BME280;67880;46.082;18.234;2023-07-20T00:50:44;99026.16;;;20.71;74.90
78584;BME280;67880;46.082;18.234;2023-07-20T00:51:21;99029.81;;;20.77;75.34
78584;BME280;67880;46.082;18.234;2023-07-20T00:51:58;99029.81;;;20.77;75.36
78584;BME280;67880;46.082;18.234;2023-07-20T00:52:35;99028.75;;;20.78;75.60
78584;BME280;67880;46.082;18.234;2023-07-20T00:53:12;99023.28;;;20.78;75.09
78584;BME280;67880;46.082;18.234;2023-07-20T00:53:45;99018.41;;;20.80;75.60
78584;BME280;67880;46.082;18.234;2023-07-20T00:54:19;99012.13;;;20.79;74.84
78584;BME280;67880;46.082;18.234;2023-07-20T00:54:53;99019.84;;;20.82;74.73
78584;BME280;67880;46.082;18.234;2023-07-20T00:55:31;99016.03;;;20.83;74.52
78584;BME280;67880;46.082;18.234;2023-07-20T00:56:05;99020.41;;;20.85;74.70
78584;BME280;67880;46.082;18.234;2023-07-20T00:56:41;99004.31;;;20.83;75.11
78584;BME280;67880;46.082;18.234;2023-07-20T00:57:18;99012.13;;;20.79;75.18
78584;BME280;67880;46.082;18.234;2023-07-20T00:58:27;99019.16;;;20.75;75.41
78584;BME280;67880;46.082;18.234;2023-07-20T00:59:03;99006.22;;;20.71;75.94
78584;BME280;67880;46.082;18.234;2023-07-20T00:59:38;99006.72;;;20.68;76.59
78584;BME280;67880;46.082;18.234;2023-07-20T01:00:15;99007.44;;;20.63;75.94
78584;BME280;67880;46.082;18.234;2023-07-20T01:00:51;99006.38;;;20.64;76.27
78584;BME280;67880;46.082;18.234;2023-07-20T01:01:26;99007.56;;;20.68;75.43
78584;BME280;67880;46.082;18.234;2023-07-20T01:02:02;99007.06;;;20.71;75.72
78584;BME280;67880;46.082;18.234;2023-07-20T01:03:10;99005.50;;;20.75;75.29
78584;BME280;67880;46.082;18.234;2023-07-20T01:03:44;99007.31;;;20.70;75.21
78584;BME280;67880;46.082;18.234;2023-07-20T01:04:19;98994.25;;;20.72;75.06
78584;BME280;67880;46.082;18.234;2023-07-20T01:04:54;98997.94;;;20.66;75.31
78584;BME280;67880;46.082;18.234;2023-07-20T01:05:48;98999.13;;;20.70;75.65
78584;BME280;67880;46.082;18.234;2023-07-20T01:07:29;99003.88;;;20.74;75.58
78584;BME280;67880;46.082;18.234;2023-07-20T01:08:15;99005.50;;;20.75;75.35
78584;BME280;67880;46.082;18.234;2023-07-20T01:09:26;99007.50;;;20.80;74.77
78584;BME280;67880;46.082;18.234;2023-07-20T01:10:22;98992.81;;;20.81;75.54
78584;BME280;67880;46.082;18.234;2023-07-20T01:12:22;99009.34;;;21.03;73.94
78584;BME280;67880;46.082;18.234;2023-07-20T01:14:11;99013.72;;;21.04;73.82
78584;BME280;67880;46.082;18.234;2023-07-20T01:14:46;99013.38;;;21.00;74.42
78584;BME280;67880;46.082;18.234;2023-07-20T01:15:19;99009.59;;;21.01;74.92
78584;BME280;67880;46.082;18.234;2023-07-20T01:15:57;99021.91;;;21.04;74.33
78584;BME280;67880;46.082;18.234;2023-07-20T01:17:08;99030.44;;;21.07;74.27
78584;BME280;67880;46.082;18.234;2023-07-20T01:17:43;99026.97;;;21.12;73.95
78584;BME280;67880;46.082;18.234;2023-07-20T01:18:52;99025.00;;;21.07;73.67
78584;BME280;67880;46.082;18.234;2023-07-20T01:19:25;99029.00;;;21.05;74.61
78584;BME280;67880;46.082;18.234;2023-07-20T01:19:59;99025.31;;;21.11;74.13
78584;BME280;67880;46.082;18.234;2023-07-20T01:20:36;99032.53;;;21.17;73.88
78584;BME280;67880;46.082;18.234;2023-07-20T01:21:21;99031.22;;;21.20;74.00
78584;BME280;67880;46.082;18.234;2023-07-20T01:31:30;99047.66;;;21.08;75.50
78584;BME280;67880;46.082;18.234;2023-07-20T01:32:41;99047.91;;;21.06;75.49
78584;BME280;67880;46.082;18.234;2023-07-20T01:33:17;99048.13;;;21.05;74.62
78584;BME280;67880;46.082;18.234;2023-07-20T01:33:56;99046.81;;;21.07;75.38
78584;BME280;67880;46.082;18.234;2023-07-20T01:34:34;99046.00;;;21.07;74.77
78584;BME280;67880;46.082;18.234;2023-07-20T01:35:11;99043.94;;;21.14;74.87
78584;BME280;67880;46.082;18.234;2023-07-20T01:35:54;99042.88;;;21.15;74.26
78584;BME280;67880;46.082;18.234;2023-07-20T01:36:35;99040.00;;;21.22;74.02
78584;BME280;67880;46.082;18.234;2023-07-20T01:37:16;99051.50;;;21.24;73.83
78584;BME280;67880;46.082;18.234;2023-07-20T01:37:53;99043.66;;;21.27;73.76
78584;BME280;67880;46.082;18.234;2023-07-20T01:38:28;99052.09;;;21.26;74.25
78584;BME280;67880;46.082;18.234;2023-07-20T01:39:02;99049.84;;;21.23;74.33
78584;BME280;67880;46.082;18.234;2023-07-20T01:39:40;99047.25;;;21.16;74.44
78584;BME280;67880;46.082;18.234;2023-07-20T01:40:16;99055.94;;;21.13;73.61
78584;BME280;67880;46.082;18.234;2023-07-20T01:40:52;99056.66;;;21.08;73.38
78584;BME280;67880;46.082;18.234;2023-07-20T01:41:26;99057.88;;;21.01;72.86
78584;BME280;67880;46.082;18.234;2023-07-20T01:41:59;99060.63;;;21.01;72.79
78584;BME280;67880;46.082;18.234;2023-07-20T01:42:35;99054.47;;;20.94;72.84
78584;BME280;67880;46.082;18.234;2023-07-20T01:43:09;99067.03;;;20.95;72.49
78584;BME280;67880;46.082;18.234;2023-07-20T01:43:45;99067.97;;;21.00;72.40
78584;BME280;67880;46.082;18.234;2023-07-20T01:44:55;99062.22;;;21.14;72.52
78584;BME280;67880;46.082;18.234;2023-07-20T01:45:30;99066.72;;;21.20;72.22
78584;BME280;67880;46.082;18.234;2023-07-20T01:46:38;99062.41;;;21.24;72.44
78584;BME280;67880;46.082;18.234;2023-07-20T01:47:12;99061.94;;;21.27;71.99
78584;BME280;67880;46.082;18.234;2023-07-20T01:47:46;99075.97;;;21.30;71.94
78584;BME280;67880;46.082;18.234;2023-07-20T01:48:20;99069.91;;;21.28;71.29
78584;BME280;67880;46.082;18.234;2023-07-20T01:48:55;99071.94;;;21.21;71.69
78584;BME280;67880;46.082;18.234;2023-07-20T01:49:29;99073.94;;;21.26;72.08
78584;BME280;67880;46.082;18.234;2023-07-20T01:50:03;99078.94;;;21.29;71.42
78584;BME280;67880;46.082;18.234;2023-07-20T01:50:40;99075.13;;;21.30;71.75
78584;BME280;67880;46.082;18.234;2023-07-20T01:51:14;99080.22;;;21.26;71.93
78584;BME280;67880;46.082;18.234;2023-07-20T01:51:48;99075.50;;;21.22;72.30
78584;BME280;67880;46.082;18.234;2023-07-20T01:52:24;99082.97;;;21.26;72.46
78584;BME280;67880;46.082;18.234;2023-07-20T01:52:59;99082.88;;;21.09;73.23
78584;BME280;67880;46.082;18.234;2023-07-20T01:53:34;99093.13;;;21.02;73.28
78584;BME280;67880;46.082;18.234;2023-07-20T01:54:09;99083.28;;;21.01;73.72
78584;BME280;67880;46.082;18.234;2023-07-20T01:54:44;99094.50;;;21.05;74.16
78584;BME280;67880;46.082;18.234;2023-07-20T01:55:19;99098.19;;;21.10;73.27
78584;BME280;67880;46.082;18.234;2023-07-20T01:56:27;99108.41;;;21.03;73.67
78584;BME280;67880;46.082;18.234;2023-07-20T01:57:02;99116.47;;;21.10;74.37
78584;BME280;67880;46.082;18.234;2023-07-20T01:57:36;99114.44;;;21.05;74.67
78584;BME280;67880;46.082;18.234;2023-07-20T01:58:10;99121.38;;;20.96;74.56
78584;BME280;67880;46.082;18.234;2023-07-20T01:58:46;99124.59;;;20.93;74.53
78584;BME280;67880;46.082;18.234;2023-07-20T01:59:24;99122.00;;;20.87;74.70
78584;BME280;67880;46.082;18.234;2023-07-20T01:59:59;99130.38;;;20.85;75.27
78584;BME280;67880;46.082;18.234;2023-07-20T02:00:36;99130.38;;;20.97;75.01
78584;BME280;67880;46.082;18.234;2023-07-20T02:01:10;99134.06;;;21.02;74.99
78584;BME280;67880;46.082;18.234;2023-07-20T02:01:46;99136.28;;;21.05;74.99
78584;BME280;67880;46.082;18.234;2023-07-20T02:02:22;99134.78;;;20.86;75.79
78584;BME280;67880;46.082;18.234;2023-07-20T02:02:56;99141.19;;;20.92;75.74
78584;BME280;67880;46.082;18.234;2023-07-20T02:03:30;99133.25;;;20.67;77.43
78584;BME280;67880;46.082;18.234;2023-07-20T02:04:04;99122.69;;;20.70;76.97
78584;BME280;67880;46.082;18.234;2023-07-20T02:04:38;99130.19;;;20.63;77.85
78584;BME280;67880;46.082;18.234;2023-07-20T02:05:11;99132.78;;;20.70;77.88
78584;BME280;67880;46.082;18.234;2023-07-20T02:05:45;99135.03;;;20.73;77.72
78584;BME280;67880;46.082;18.234;2023-07-20T02:06:19;99135.16;;;20.78;77.76
78584;BME280;67880;46.082;18.234;2023-07-20T02:06:55;99136.47;;;20.75;77.99
78584;BME280;67880;46.082;18.234;2023-07-20T02:07:30;99134.06;;;20.79;77.54
78584;BME280;67880;46.082;18.234;2023-07-20T02:08:04;99136.72;;;20.74;78.02
78584;BME280;67880;46.082;18.234;2023-07-20T02:08:38;99134.91;;;20.79;77.87
78584;BME280;67880;46.082;18.234;2023-07-20T02:09:14;99137.88;;;20.66;78.57
78584;BME280;67880;46.082;18.234;2023-07-20T02:09:49;99135.38;;;20.65;79.04
78584;BME280;67880;46.082;18.234;2023-07-20T02:10:24;99132.41;;;20.66;78.46
78584;BME280;67880;46.082;18.234;2023-07-20T02:10:59;99134.31;;;20.66;78.20
78584;BME280;67880;46.082;18.234;2023-07-20T02:11:34;99145.09;;;20.72;78.71
78584;BME280;67880;46.082;18.234;2023-07-20T02:12:08;99144.97;;;20.67;78.80
78584;BME280;67880;46.082;18.234;2023-07-20T02:12:44;99139.06;;;20.59;79.16
78584;BME280;67880;46.082;18.234;2023-07-20T02:13:18;99141.78;;;20.59;79.73
78584;BME280;67880;46.082;18.234;2023-07-20T02:13:54;99154.34;;;20.60;79.48
78584;BME280;67880;46.082;18.234;2023-07-20T02:14:28;99147.72;;;20.55;79.80
78584;BME280;67880;46.082;18.234;2023-07-20T02:15:05;99152.69;;;20.59;79.59
78584;BME280;67880;46.082;18.234;2023-07-20T02:15:41;99158.75;;;20.61;79.88
78584;BME280;67880;46.082;18.234;2023-07-20T02:17:31;99161.38;;;20.55;80.21
78584;BME280;67880;46.082;18.234;2023-07-20T02:18:39;99167.91;;;20.54;80.38
78584;BME280;67880;46.082;18.234;2023-07-20T02:19:14;99166.72;;;20.62;79.11
78584;BME280;67880;46.082;18.234;2023-07-20T02:19:56;99158.75;;;20.61;78.86
78584;BME280;67880;46.082;18.234;2023-07-20T02:20:32;99164.31;;;20.66;79.62
78584;BME280;67880;46.082;18.234;2023-07-20T02:21:05;99162.66;;;20.65;79.36
78584;BME280;67880;46.082;18.234;2023-07-20T02:21:40;99161.72;;;20.71;79.53
78584;BME280;67880;46.082;18.234;2023-07-20T02:22:15;99154.72;;;20.75;79.27
78584;BME280;67880;46.082;18.234;2023-07-20T02:22:50;99160.78;;;20.77;79.80
78584;BME280;67880;46.082;18.234;2023-07-20T02:23:24;99160.41;;;20.73;79.21
78584;BME280;67880;46.082;18.234;2023-07-20T02:23:58;99163.63;;;20.70;80.03
78584;BME280;67880;46.082;18.234;2023-07-20T02:24:34;99156.38;;;20.64;80.15
78584;BME280;67880;46.082;18.234;2023-07-20T02:25:08;99155.19;;;20.72;80.16
78584;BME280;67880;46.082;18.234;2023-07-20T02:25:44;99161.72;;;20.71;79.47
78584;BME280;67880;46.082;18.234;2023-07-20T02:26:19;99155.19;;;20.72;79.72
78584;BME280;67880;46.082;18.234;2023-07-20T02:26:56;99151.28;;;20.68;80.36
78584;BME280;67880;46.082;18.234;2023-07-20T02:27:31;99154.84;;;20.68;80.08
78584;BME280;67880;46.082;18.234;2023-07-20T02:28:11;99154.16;;;20.61;80.12
78584;BME280;67880;46.082;18.234;2023-07-20T02:28:47;99162.78;;;20.70;79.70
78584;BME280;67880;46.082;18.234;2023-07-20T02:29:22;99164.00;;;20.74;79.90
78584;BME280;67880;46.082;18.234;2023-07-20T02:30:08;99170.59;;;20.78;80.37
78584;BME280;67880;46.082;18.234;2023-07-20T02:30:44;99159.69;;;20.78;80.09
78584;BME280;67880;46.082;18.234;2023-07-20T02:31:25;99165.66;;;20.75;80.31
78584;BME280;67880;46.082;18.234;2023-07-20T02:31:59;99157.34;;;20.70;81.00
78584;BME280;67880;46.082;18.234;2023-07-20T02:32:35;99172.75;;;20.76;81.08
78584;BME280;67880;46.082;18.234;2023-07-20T02:33:11;99161.13;;;20.69;81.62
78584;BME280;67880;46.082;18.234;2023-07-20T02:33:46;99164.44;;;20.71;81.51
78584;BME280;67880;46.082;18.234;2023-07-20T02:34:21;99171.69;;;20.65;82.60
78584;BME280;67880;46.082;18.234;2023-07-20T02:35:11;99159.81;;;20.71;81.91
78584;BME280;67880;46.082;18.234;2023-07-20T02:35:45;99159.38;;;20.74;82.74
78584;BME280;67880;46.082;18.234;2023-07-20T02:36:20;99162.19;;;20.79;83.16
78584;BME280;67880;46.082;18.234;2023-07-20T02:36:56;99160.19;;;20.75;82.30
78584;BME280;67880;46.082;18.234;2023-07-20T02:37:34;99157.22;;;20.65;83.54
78584;BME280;67880;46.082;18.234;2023-07-20T02:38:09;99152.47;;;20.60;83.13
78584;BME280;67880;46.082;18.234;2023-07-20T02:39:17;99146.66;;;20.68;82.96
78584;BME280;67880;46.082;18.234;2023-07-20T02:39:53;99140.13;;;20.69;83.27
78584;BME280;67880;46.082;18.234;2023-07-20T02:40:32;99153.66;;;20.64;83.17
78584;BME280;67880;46.082;18.234;2023-07-20T02:41:10;99142.50;;;20.66;83.85
78584;BME280;67880;46.082;18.234;2023-07-20T02:41:46;99146.44;;;20.70;83.81
78584;BME280;67880;46.082;18.234;2023-07-20T02:42:21;99148.31;;;20.69;84.19
78584;BME280;67880;46.082;18.234;2023-07-20T02:42:56;99152.34;;;20.67;84.71
78584;BME280;67880;46.082;18.234;2023-07-20T02:43:37;99145.47;;;20.64;84.19
78584;BME280;67880;46.082;18.234;2023-07-20T02:44:13;99147.72;;;20.67;84.34
78584;BME280;67880;46.082;18.234;2023-07-20T02:44:49;99142.25;;;20.67;84.39
78584;BME280;67880;46.082;18.234;2023-07-20T02:45:29;99141.44;;;20.67;84.71
78584;BME280;67880;46.082;18.234;2023-07-20T02:46:07;99139.31;;;20.69;84.29
78584;BME280;67880;46.082;18.234;2023-07-20T02:46:43;99136.34;;;20.70;84.92
78584;BME280;67880;46.082;18.234;2023-07-20T02:47:17;99141.22;;;20.68;84.97
78584;BME280;67880;46.082;18.234;2023-07-20T02:47:50;99142.16;;;20.74;84.34
78584;BME280;67880;46.082;18.234;2023-07-20T02:48:24;99136.72;;;20.74;83.95
78584;BME280;67880;46.082;18.234;2023-07-20T02:49:02;99131.97;;;20.69;84.42
78584;BME280;67880;46.082;18.234;2023-07-20T02:49:39;99148.06;;;20.71;84.20
78584;BME280;67880;46.082;18.234;2023-07-20T02:51:23;99142.03;;;20.69;84.62
78584;BME280;67880;46.082;18.234;2023-07-20T02:52:03;99160.06;;;20.70;85.27
78584;BME280;67880;46.082;18.234;2023-07-20T02:52:39;99154.13;;;20.73;84.73
78584;BME280;67880;46.082;18.234;2023-07-20T02:53:13;99155.19;;;20.72;85.35
78584;BME280;67880;46.082;18.234;2023-07-20T02:53:48;99150.09;;;20.75;85.36
78584;BME280;67880;46.082;18.234;2023-07-20T02:54:23;99148.56;;;20.68;85.13
78584;BME280;67880;46.082;18.234;2023-07-20T02:54:59;99155.31;;;20.65;85.45
78584;BME280;67880;46.082;18.234;2023-07-20T02:55:36;99165.06;;;20.61;85.47
78584;BME280;67880;46.082;18.234;2023-07-20T02:56:10;99166.47;;;20.64;86.93
78584;BME280;67880;46.082;18.234;2023-07-20T02:56:44;99157.78;;;20.67;85.99
78584;BME280;67880;46.082;18.234;2023-07-20T02:57:19;99161.25;;;20.74;86.25
78584;BME280;67880;46.082;18.234;2023-07-20T02:57:53;99154.97;;;20.62;85.98
78584;BME280;67880;46.082;18.234;2023-07-20T02:58:33;99162.66;;;20.65;86.23
78584;BME280;67880;46.082;18.234;2023-07-20T02:59:12;99158.88;;;20.66;85.69
78584;BME280;67880;46.082;18.234;2023-07-20T02:59:48;99159.25;;;20.69;86.46
78584;BME280;67880;46.082;18.234;2023-07-20T03:00:28;99160.53;;;20.67;86.60
78584;BME280;67880;46.082;18.234;2023-07-20T03:01:04;99157.91;;;20.60;86.99
78584;BME280;67880;46.082;18.234;2023-07-20T03:01:44;99152.47;;;20.60;86.91
78584;BME280;67880;46.082;18.234;2023-07-20T03:02:52;99150.22;;;20.69;85.72
78584;BME280;67880;46.082;18.234;2023-07-20T03:03:33;99154.13;;;20.73;85.50
78584;BME280;67880;46.082;18.234;2023-07-20T03:04:12;99146.31;;;20.76;85.41
78584;BME280;67880;46.082;18.234;2023-07-20T03:04:47;99147.00;;;20.72;85.49
78584;BME280;67880;46.082;18.234;2023-07-20T03:05:22;99149.63;;;20.78;85.51
78584;BME280;67880;46.082;18.234;2023-07-20T03:07:11;99150.44;;;20.79;85.14
78584;BME280;67880;46.082;18.234;2023-07-20T03:07:47;99153.28;;;20.84;85.56
78584;BME280;67880;46.082;18.234;2023-07-20T03:08:27;99147.25;;;20.82;85.29
78584;BME280;67880;46.082;18.234;2023-07-20T03:09:02;99144.75;;;20.80;86.47
78584;BME280;67880;46.082;18.234;2023-07-20T03:09:44;99148.66;;;20.85;85.80
78584;BME280;67880;46.082;18.234;2023-07-20T03:10:19;99135.13;;;20.90;85.95
78584;BME280;67880;46.082;18.234;2023-07-20T03:10:54;99135.13;;;20.90;85.79
78584;BME280;67880;46.082;18.234;2023-07-20T03:11:29;99137.88;;;20.90;85.34
78584;BME280;67880;46.082;18.234;2023-07-20T03:12:05;99143.06;;;20.91;85.09
78584;BME280;67880;46.082;18.234;2023-07-20T03:12:39;99138.81;;;20.95;84.74
78584;BME280;67880;46.082;18.234;2023-07-20T03:13:15;99140.22;;;20.98;84.53
78584;BME280;67880;46.082;18.234;2023-07-20T03:13:50;99132.53;;;20.95;86.53
78584;BME280;67880;46.082;18.234;2023-07-20T03:14:26;99133.34;;;20.95;84.79
78584;BME280;67880;46.082;18.234;2023-07-20T03:15:02;99132.84;;;20.98;85.40
78584;BME280;67880;46.082;18.234;2023-07-20T03:15:43;99144.97;;;21.02;85.00
78584;BME280;67880;46.082;18.234;2023-07-20T03:16:50;99140.84;;;21.00;85.13
78584;BME280;67880;46.082;18.234;2023-07-20T03:18:05;99138.94;;;21.00;84.62
78584;BME280;67880;46.082;18.234;2023-07-20T03:18:51;99142.47;;;21.01;84.31
78584;BME280;67880;46.082;18.234;2023-07-20T03:19:28;99149.22;;;20.98;84.59
78584;BME280;67880;46.082;18.234;2023-07-20T03:20:07;99142.13;;;20.97;85.94
78584;BME280;67880;46.082;18.234;2023-07-20T03:20:50;99141.19;;;20.92;84.70
78584;BME280;67880;46.082;18.234;2023-07-20T03:21:23;99139.88;;;20.94;84.94
78584;BME280;67880;46.082;18.234;2023-07-20T03:21:58;99139.16;;;20.99;85.17
78584;BME280;67880;46.082;18.234;2023-07-20T03:22:35;99147.94;;;21.01;83.63
78584;BME280;67880;46.082;18.234;2023-07-20T03:23:08;99140.84;;;21.00;84.46
78584;BME280;67880;46.082;18.234;2023-07-20T03:23:45;99140.34;;;21.03;84.54
78584;BME280;67880;46.082;18.234;2023-07-20T03:24:21;99140.22;;;21.09;84.93
78584;BME280;67880;46.082;18.234;2023-07-20T03:24:57;99133.34;;;21.07;83.69
78584;BME280;67880;46.082;18.234;2023-07-20T03:25:40;99138.56;;;20.97;84.71
78584;BME280;67880;46.082;18.234;2023-07-20T03:26:15;99137.63;;;20.91;85.66
78584;BME280;67880;46.082;18.234;2023-07-20T03:26:51;99135.97;;;20.90;86.24
78584;BME280;67880;46.082;18.234;2023-07-20T03:27:25;99133.81;;;20.92;85.39
78584;BME280;67880;46.082;18.234;2023-07-20T03:28:05;99139.88;;;20.94;84.94
78584;BME280;67880;46.082;18.234;2023-07-20T03:28:41;99145.09;;;20.96;84.96
78584;BME280;67880;46.082;18.234;2023-07-20T03:29:16;99138.94;;;21.00;84.76
78584;BME280;67880;46.082;18.234;2023-07-20T03:29:50;99153.03;;;20.97;85.31
78584;BME280;67880;46.082;18.234;2023-07-20T03:30:29;99141.91;;;20.87;85.25
78584;BME280;67880;46.082;18.234;2023-07-20T03:31:04;99146.16;;;20.95;85.02
78584;BME280;67880;46.082;18.234;2023-07-20T03:32:50;99151.13;;;20.98;83.78
78584;BME280;67880;46.082;18.234;2023-07-20T03:33:56;99149.84;;;21.00;83.68
78584;BME280;67880;46.082;18.234;2023-07-20T03:34:30;99145.44;;;20.99;83.19
78584;BME280;67880;46.082;18.234;2023-07-20T03:35:06;99148.53;;;21.03;84.08
78584;BME280;67880;46.082;18.234;2023-07-20T03:35:42;99141.03;;;21.10;83.61
78584;BME280;67880;46.082;18.234;2023-07-20T03:36:49;99142.59;;;21.06;83.65
78584;BME280;67880;46.082;18.234;2023-07-20T03:37:25;99149.47;;;21.08;83.60
78584;BME280;67880;46.082;18.234;2023-07-20T03:38:00;99147.00;;;21.07;83.38